createdAt,value
2022-12-09T00:01:10.204Z,68.09
2022-12-09T00:03:37.125Z,68.87
2022-12-09T00:06:10.924Z,67.90
2022-12-09T00:08:37.587Z,68.72
2022-12-09T00:11:05.672Z,68.90
2022-12-09T00:13:32.408Z,67.21
2022-12-09T00:15:59.289Z,68.76
2022-12-09T00:18:26.085Z,68.68
2022-12-09T00:20:52.674Z,68.67
2022-12-09T00:23:19.304Z,68.77
2022-12-09T00:25:45.916Z,68.93
2022-12-09T00:28:12.487Z,69.05
2022-12-09T00:30:39.199Z,68.88
2022-12-09T00:33:05.880Z,68.71
2022-12-09T00:35:32.348Z,68.61
2022-12-09T00:37:59.084Z,68.49
2022-12-09T00:40:25.814Z,68.28
2022-12-09T00:42:52.257Z,68.09
2022-12-09T00:45:18.909Z,68.22
2022-12-09T00:47:46.264Z,68.14
2022-12-09T00:50:12.889Z,68.17
2022-12-09T00:52:39.427Z,68.26
2022-12-09T00:55:07.719Z,68.19
2022-12-09T00:57:34.789Z,68.18
2022-12-09T01:00:01.408Z,67.98
2022-12-09T01:02:28.272Z,68.17
2022-12-09T01:04:56.422Z,68.06
2022-12-09T01:07:23.206Z,68.25
2022-12-09T01:09:49.670Z,68.45
2022-12-09T01:12:16.192Z,68.42
2022-12-09T01:14:42.866Z,68.72
2022-12-09T01:17:09.524Z,68.69
2022-12-09T01:19:36.104Z,68.71
2022-12-09T01:22:02.858Z,68.91
2022-12-09T01:24:30.104Z,68.92
2022-12-09T01:26:56.861Z,68.90
2022-12-09T01:29:23.392Z,68.89
2022-12-09T01:31:50.076Z,69.04
2022-12-09T01:34:16.883Z,68.83
2022-12-09T01:36:43.541Z,68.81
2022-12-09T01:39:10.935Z,68.98
2022-12-09T01:41:37.713Z,68.80
2022-12-09T01:44:19.610Z,68.40
2022-12-09T01:46:46.968Z,68.88
2022-12-09T01:49:24.850Z,68.30
2022-12-09T01:52:05.465Z,68.35
2022-12-09T01:54:32.774Z,68.69
2022-12-09T01:57:00.005Z,68.79
2022-12-09T01:59:28.245Z,68.55
2022-12-09T02:01:59.417Z,68.43
2022-12-09T02:04:28.414Z,68.65
2022-12-09T02:06:57.949Z,68.64
2022-12-09T02:09:25.166Z,68.90
2022-12-09T02:11:57.771Z,68.96
2022-12-09T02:14:32.042Z,68.75
2022-12-09T02:17:20.746Z,68.53
2022-12-09T02:20:06.846Z,69.32
2022-12-09T02:22:44.644Z,68.87
2022-12-09T02:25:44.108Z,68.52
2022-12-09T02:28:54.538Z,68.78
2022-12-09T02:31:44.082Z,69.84
2022-12-09T02:34:18.485Z,69.65
2022-12-09T02:37:10.713Z,68.93
2022-12-09T02:39:50.009Z,69.54
2022-12-09T02:42:21.661Z,69.91
2022-12-09T02:44:50.785Z,69.96
2022-12-09T02:47:22.707Z,70.10
2022-12-09T02:49:52.478Z,69.92
2022-12-09T02:52:21.754Z,70.08
2022-12-09T02:54:49.442Z,70.05
2022-12-09T02:57:19.942Z,69.89
2022-12-09T02:59:46.867Z,70.10
2022-12-09T03:02:35.344Z,69.31
2022-12-09T03:05:13.523Z,69.22
2022-12-09T03:07:54.143Z,68.79
2022-12-09T03:10:44.084Z,68.71
2022-12-09T03:13:18.246Z,68.91
2022-12-09T03:15:50.724Z,68.89
2022-12-09T03:18:21.001Z,68.91
2022-12-09T03:20:50.556Z,68.79
2022-12-09T03:23:20.202Z,68.58
2022-12-09T03:25:51.646Z,68.34
2022-12-09T03:28:30.543Z,67.72
2022-12-09T03:31:03.119Z,68.11
2022-12-09T03:33:30.716Z,68.27
2022-12-09T03:36:02.607Z,67.77
2022-12-09T03:38:35.144Z,67.69
2022-12-09T03:41:20.661Z,67.43
2022-12-09T03:43:53.233Z,67.70
2022-12-09T03:46:22.181Z,68.39
2022-12-09T03:48:49.339Z,68.40
2022-12-09T03:51:27.500Z,67.76
2022-12-09T03:54:09.445Z,67.54
2022-12-09T03:56:41.231Z,67.81
2022-12-09T03:59:11.903Z,67.83
2022-12-09T04:01:41.770Z,68.22
2022-12-09T04:04:09.165Z,68.21
2022-12-09T04:06:35.850Z,68.26
2022-12-09T04:09:03.710Z,68.19
2022-12-09T04:11:31.686Z,68.11
2022-12-09T04:13:58.448Z,68.06
2022-12-09T04:16:25.471Z,68.07
2022-12-09T04:18:52.097Z,68.33
2022-12-09T04:21:19.065Z,68.47
2022-12-09T04:23:45.726Z,68.66
2022-12-09T04:26:19.331Z,67.81
2022-12-09T04:28:46.046Z,68.71
2022-12-09T04:31:14.677Z,68.70
2022-12-09T04:33:42.183Z,68.90
2022-12-09T04:36:12.404Z,68.71
2022-12-09T04:38:39.743Z,68.73
2022-12-09T04:41:06.684Z,68.74
2022-12-09T04:43:33.624Z,68.80
2022-12-09T04:46:06.522Z,67.96
2022-12-09T04:48:33.613Z,68.85
2022-12-09T04:51:00.184Z,68.91
2022-12-09T04:53:27.349Z,68.86
2022-12-09T04:56:18.305Z,67.78
2022-12-09T04:58:45.603Z,68.98
2022-12-09T05:01:17.614Z,68.72
2022-12-09T05:03:48.730Z,68.37
2022-12-09T05:06:16.349Z,68.94
2022-12-09T05:08:43.993Z,68.67
2022-12-09T05:11:11.422Z,68.83
2022-12-09T05:13:38.159Z,68.88
2022-12-09T05:16:13.834Z,68.80
2022-12-09T05:18:43.218Z,69.15
2022-12-09T05:21:12.553Z,69.12
2022-12-09T05:23:39.543Z,69.49
2022-12-09T05:26:09.533Z,69.16
2022-12-09T05:28:37.205Z,69.37
2022-12-09T05:31:07.124Z,68.92
2022-12-09T05:33:34.385Z,68.96
2022-12-09T05:36:01.270Z,68.83
2022-12-09T05:38:28.223Z,68.59
2022-12-09T05:40:54.766Z,68.52
2022-12-09T05:43:21.711Z,68.53
2022-12-09T05:45:48.570Z,68.26
2022-12-09T05:48:15.116Z,68.21
2022-12-09T05:50:42.328Z,67.92
2022-12-09T05:53:09.098Z,68.09
2022-12-09T05:55:35.831Z,68.13
2022-12-09T05:58:02.833Z,68.15
2022-12-09T06:00:29.736Z,68.52
2022-12-09T06:02:56.323Z,68.67
2022-12-09T06:05:23.790Z,68.79
2022-12-09T06:07:50.675Z,68.71
2022-12-09T06:10:17.783Z,69.01
2022-12-09T06:12:44.815Z,69.09
2022-12-09T06:15:13.519Z,68.98
2022-12-09T06:17:44.042Z,69.08
2022-12-09T06:20:11.436Z,68.80
2022-12-09T06:22:38.584Z,68.96
2022-12-09T06:25:05.672Z,68.68
2022-12-09T06:27:32.587Z,68.91
2022-12-09T06:29:59.495Z,69.03
2022-12-09T06:32:26.103Z,68.95
2022-12-09T06:34:53.130Z,69.06
2022-12-09T06:37:20.119Z,69.08
2022-12-09T06:39:47.254Z,69.13
2022-12-09T06:42:14.446Z,69.13
2022-12-09T06:44:41.058Z,69.32
2022-12-09T06:47:08.457Z,69.38
2022-12-09T06:49:35.398Z,69.27
2022-12-09T06:52:02.457Z,69.23
2022-12-09T06:54:29.656Z,69.02
2022-12-09T06:56:56.374Z,69.24
2022-12-09T06:59:23.083Z,69.25
2022-12-09T07:01:50.187Z,69.46
2022-12-09T07:04:17.856Z,69.68
2022-12-09T07:06:46.075Z,69.85
2022-12-09T07:09:18.858Z,69.09
2022-12-09T07:11:46.356Z,69.94
2022-12-09T07:14:14.775Z,69.74
2022-12-09T07:16:42.195Z,69.82
2022-12-09T07:19:15.773Z,68.96
2022-12-09T07:21:43.038Z,70.08
2022-12-09T07:24:10.682Z,70.21
2022-12-09T07:26:37.672Z,70.21
2022-12-09T07:29:05.846Z,70.07
2022-12-09T07:31:33.790Z,70.08
2022-12-09T07:34:01.059Z,68.53
2022-12-09T07:36:32.180Z,69.62
2022-12-09T07:39:01.636Z,69.68
2022-12-09T07:41:29.698Z,69.83
2022-12-09T07:43:56.634Z,68.43
2022-12-09T07:46:24.626Z,70.04
2022-12-09T07:48:51.990Z,69.84
2022-12-09T07:51:18.915Z,69.69
2022-12-09T07:53:47.063Z,69.72
2022-12-09T07:56:15.147Z,69.72
2022-12-09T07:58:43.132Z,69.89
2022-12-09T08:01:16.754Z,69.22
2022-12-09T08:03:44.357Z,70.09
2022-12-09T08:06:12.826Z,70.06
2022-12-09T08:08:40.052Z,70.35
2022-12-09T08:11:15.531Z,69.58
2022-12-09T08:13:42.596Z,70.44
2022-12-09T08:16:11.590Z,70.44
2022-12-09T08:18:38.737Z,70.33
2022-12-09T08:21:08.269Z,70.24
2022-12-09T08:23:35.528Z,70.22
2022-12-09T08:26:03.071Z,70.43
2022-12-09T08:28:30.127Z,70.34
2022-12-09T08:30:58.343Z,70.42
2022-12-09T08:33:25.517Z,68.49
2022-12-09T08:35:52.369Z,70.28
2022-12-09T08:38:19.194Z,70.31
2022-12-09T08:40:46.295Z,70.49
2022-12-09T08:43:12.859Z,70.50
2022-12-09T08:45:41.139Z,70.10
2022-12-09T08:48:08.868Z,70.09
2022-12-09T08:50:35.671Z,70.16
2022-12-09T08:53:03.128Z,70.16
2022-12-09T08:55:30.016Z,70.04
2022-12-09T08:57:57.399Z,69.77
2022-12-09T09:00:24.238Z,69.80
2022-12-09T09:02:51.040Z,69.50
2022-12-09T09:05:18.511Z,69.62
2022-12-09T09:07:45.746Z,69.69
2022-12-09T09:10:13.337Z,69.21
2022-12-09T09:12:43.495Z,69.21
2022-12-09T09:15:10.836Z,69.00
2022-12-09T09:17:38.515Z,69.27
2022-12-09T09:20:06.226Z,69.42
2022-12-09T09:22:34.606Z,69.14
2022-12-09T09:25:01.648Z,69.58
2022-12-09T09:27:28.407Z,69.67
2022-12-09T09:29:55.069Z,69.26
2022-12-09T09:32:22.150Z,69.50
2022-12-09T09:34:49.199Z,69.26
2022-12-09T09:37:17.138Z,69.05
2022-12-09T09:39:43.953Z,69.19
2022-12-09T09:42:17.755Z,67.84
2022-12-09T09:44:50.084Z,68.50
2022-12-09T09:47:45.489Z,68.46
2022-12-09T09:50:48.702Z,67.47
2022-12-09T09:53:27.545Z,67.47
2022-12-09T09:56:01.317Z,67.71
2022-12-09T09:58:56.602Z,67.63
2022-12-09T10:01:27.807Z,69.03
2022-12-09T10:04:26.451Z,67.83
2022-12-09T10:07:08.395Z,67.51
2022-12-09T10:09:49.462Z,67.65
2022-12-09T10:12:44.432Z,67.31
2022-12-09T10:15:19.589Z,68.41
2022-12-09T10:17:53.423Z,68.28
2022-12-09T10:20:27.656Z,68.42
2022-12-09T10:23:02.226Z,70.07
2022-12-09T10:25:35.644Z,69.70
2022-12-09T10:28:26.092Z,67.27
2022-12-09T10:30:55.647Z,69.68
2022-12-09T10:33:40.117Z,67.70
2022-12-09T10:36:22.156Z,67.39
2022-12-09T10:38:48.794Z,69.32
2022-12-09T10:41:29.599Z,68.29
2022-12-09T10:44:24.654Z,66.62
2022-12-09T10:47:04.070Z,67.00
2022-12-09T10:49:32.142Z,68.95
2022-12-09T10:51:59.356Z,68.74
2022-12-09T10:54:34.290Z,67.38
2022-12-09T10:57:12.531Z,68.51
2022-12-09T10:59:41.636Z,68.74
2022-12-09T11:02:08.914Z,68.72
2022-12-09T11:04:41.048Z,67.59
2022-12-09T11:07:23.900Z,65.43
2022-12-09T11:09:52.304Z,68.07
2022-12-09T11:12:32.098Z,68.32
2022-12-09T11:15:04.454Z,68.05
2022-12-09T11:17:35.870Z,68.30
2022-12-09T11:20:05.777Z,68.09
2022-12-09T11:22:38.252Z,67.78
2022-12-09T11:25:25.132Z,67.17
2022-12-09T11:28:21.711Z,67.96
2022-12-09T11:33:55.334Z,68.37
2022-12-09T11:36:31.349Z,68.90
2022-12-09T11:39:29.330Z,67.30
2022-12-09T11:41:57.730Z,67.71
2022-12-09T11:44:31.414Z,67.96
2022-12-09T11:47:19.857Z,69.12
2022-12-09T11:49:51.737Z,68.52
2022-12-09T11:52:18.193Z,68.70
2022-12-09T11:54:59.515Z,68.44
2022-12-09T11:57:30.787Z,68.73
2022-12-09T12:00:02.012Z,68.11
2022-12-09T12:02:37.563Z,67.82
2022-12-09T12:05:22.047Z,68.23
2022-12-09T12:08:17.322Z,66.98
2022-12-09T12:10:49.996Z,67.56
2022-12-09T12:13:22.573Z,67.65
2022-12-09T12:15:57.301Z,67.00
2022-12-09T12:18:27.322Z,69.04
2022-12-09T12:21:07.320Z,68.76
2022-12-09T12:24:03.135Z,66.73
2022-12-09T12:26:39.964Z,67.93
2022-12-09T12:29:32.125Z,66.91
2022-12-09T12:32:36.357Z,66.91
2022-12-09T12:35:08.758Z,68.33
2022-12-09T12:37:47.174Z,66.84
2022-12-09T12:40:37.805Z,66.25
2022-12-09T12:43:26.574Z,66.73
2022-12-09T12:46:02.563Z,67.26
2022-12-09T12:48:38.449Z,66.81
2022-12-09T12:51:25.190Z,66.78
2022-12-09T12:54:10.559Z,66.70
2022-12-09T12:56:49.129Z,66.27
2022-12-09T12:59:22.792Z,66.35
2022-12-09T13:01:57.220Z,65.69
2022-12-09T13:04:39.174Z,65.49
2022-12-09T13:07:11.443Z,66.06
2022-12-09T13:09:56.270Z,66.27
2022-12-09T13:12:32.328Z,66.77
2022-12-09T13:14:58.835Z,66.31
2022-12-09T13:17:29.294Z,66.01
2022-12-09T13:20:01.076Z,66.29
2022-12-09T13:22:40.995Z,66.40
2022-12-09T13:25:37.441Z,66.32
2022-12-09T13:28:09.636Z,67.25
2022-12-09T13:30:48.456Z,66.91
2022-12-09T13:33:38.029Z,66.68
2022-12-09T13:36:26.243Z,66.79
2022-12-09T13:38:53.645Z,67.62
2022-12-09T13:41:36.384Z,66.49
2022-12-09T13:44:16.814Z,66.96
2022-12-09T13:46:43.584Z,68.22
2022-12-09T13:49:20.906Z,67.28
2022-12-09T13:51:50.216Z,68.12
2022-12-09T13:54:19.232Z,68.02
2022-12-09T13:57:07.821Z,67.74
2022-12-09T13:59:59.116Z,68.58
2022-12-09T14:02:38.395Z,67.88
2022-12-09T14:05:14.702Z,67.62
2022-12-09T14:07:59.975Z,67.51
2022-12-09T14:10:35.708Z,67.46
2022-12-09T14:13:17.616Z,68.43
2022-12-09T14:15:45.448Z,68.86
2022-12-09T14:18:31.166Z,67.33
2022-12-09T14:21:30.994Z,67.69
2022-12-09T14:24:09.795Z,67.26
2022-12-09T14:26:37.597Z,68.47
2022-12-09T14:29:04.391Z,68.44
2022-12-09T14:31:44.651Z,67.25
2022-12-09T14:34:39.576Z,67.05
2022-12-09T14:37:21.973Z,67.80
2022-12-09T14:40:02.831Z,67.42
2022-12-09T14:42:47.187Z,67.27
2022-12-09T14:45:44.777Z,67.19
2022-12-09T14:48:16.204Z,68.41
2022-12-09T14:50:42.690Z,68.63
2022-12-09T14:53:22.139Z,67.23
2022-12-09T14:55:49.752Z,68.71
2022-12-09T14:58:20.993Z,67.97
2022-12-09T15:00:47.606Z,68.41
2022-12-09T15:03:35.476Z,67.19
2022-12-09T15:06:16.997Z,67.48
2022-12-09T15:08:43.563Z,68.65
2022-12-09T15:11:20.366Z,67.23
2022-12-09T15:13:49.150Z,68.53
2022-12-09T15:16:20.992Z,68.11
2022-12-09T15:18:49.320Z,68.49
2022-12-09T15:21:27.565Z,67.30
2022-12-09T15:23:54.686Z,68.53
2022-12-09T15:26:25.825Z,68.10
2022-12-09T15:28:54.247Z,68.30
2022-12-09T15:31:23.786Z,68.13
2022-12-09T15:33:54.093Z,67.62
2022-12-09T15:36:31.348Z,68.01
2022-12-09T15:39:18.460Z,66.98
2022-12-09T15:41:47.868Z,68.22
2022-12-09T15:44:18.201Z,67.85
2022-12-09T15:46:47.602Z,68.41
2022-12-09T15:49:21.917Z,68.05
2022-12-09T15:51:50.915Z,68.68
2022-12-09T15:54:23.476Z,67.90
2022-12-09T15:56:59.328Z,67.55
2022-12-09T15:59:43.208Z,67.19
2022-12-09T16:02:13.147Z,68.19
2022-12-09T16:04:46.191Z,67.69
2022-12-09T16:07:15.333Z,68.34
2022-12-09T16:09:42.492Z,68.60
2022-12-09T16:12:29.020Z,67.42
2022-12-09T16:14:55.593Z,68.62
2022-12-09T16:17:28.585Z,68.11
2022-12-09T16:19:55.289Z,68.94
2022-12-09T16:22:27.148Z,68.29
2022-12-09T16:25:17.352Z,69.02
2022-12-09T16:27:47.150Z,68.73
2022-12-09T16:30:16.898Z,68.39
2022-12-09T16:32:45.128Z,68.52
2022-12-09T16:35:11.665Z,68.68
2022-12-09T16:38:00.414Z,68.36
2022-12-09T16:40:26.854Z,68.83
2022-12-09T16:42:55.575Z,68.75
2022-12-09T16:45:37.341Z,67.74
2022-12-09T16:48:04.340Z,68.83
2022-12-09T16:50:33.789Z,68.73
2022-12-09T16:53:01.307Z,69.03
2022-12-09T16:55:30.965Z,68.79
2022-12-09T16:57:59.041Z,68.86
2022-12-09T17:00:25.653Z,67.81
2022-12-09T17:03:04.462Z,68.03
2022-12-09T17:05:31.071Z,68.92
2022-12-09T17:07:57.657Z,68.89
2022-12-09T17:10:24.708Z,68.87
2022-12-09T17:12:51.257Z,68.95
2022-12-09T17:15:20.339Z,68.81
2022-12-09T17:17:48.902Z,68.79
2022-12-09T17:20:16.073Z,68.96
2022-12-09T17:22:42.707Z,69.05
2022-12-09T17:25:09.475Z,69.06
2022-12-09T17:27:36.789Z,68.89
2022-12-09T17:30:03.877Z,68.72
2022-12-09T17:32:30.358Z,68.59
2022-12-09T17:34:56.832Z,68.47
2022-12-09T17:37:23.297Z,68.60
2022-12-09T17:39:55.627Z,68.84
2022-12-09T17:42:26.507Z,68.87
2022-12-09T17:44:52.990Z,68.86
2022-12-09T17:47:19.482Z,69.08
2022-12-09T17:49:45.929Z,69.25
2022-12-09T17:52:12.422Z,69.28
2022-12-09T17:54:38.922Z,69.21
2022-12-09T17:57:05.467Z,69.21
2022-12-09T17:59:32.023Z,69.15
2022-12-09T18:01:58.661Z,69.29
2022-12-09T18:04:25.383Z,69.32
2022-12-09T18:06:52.014Z,69.56
2022-12-09T18:09:19.131Z,69.53
2022-12-09T18:11:46.291Z,69.39
2022-12-09T18:14:13.039Z,69.56
2022-12-09T18:16:39.687Z,69.55
2022-12-09T18:19:13.899Z,69.42
2022-12-09T18:21:40.406Z,69.67
2022-12-09T18:24:07.374Z,69.87
2022-12-09T18:26:39.712Z,69.71
2022-12-09T18:29:08.159Z,69.76
2022-12-09T18:31:35.045Z,69.73
2022-12-09T18:34:01.530Z,69.71
2022-12-09T18:36:29.155Z,69.61
2022-12-09T18:38:56.201Z,69.63
2022-12-09T18:41:25.261Z,69.43
2022-12-09T18:43:53.211Z,69.77
2022-12-09T18:46:25.856Z,69.28
2022-12-09T18:49:04.164Z,68.92
2022-12-09T18:51:31.377Z,69.69
2022-12-09T18:53:58.723Z,69.64
2022-12-09T18:56:26.152Z,69.64
2022-12-09T18:59:09.332Z,69.73
2022-12-09T19:01:40.409Z,69.68
2022-12-09T19:04:12.826Z,69.73
2022-12-09T19:06:41.509Z,69.83
2022-12-09T19:09:15.308Z,68.92
2022-12-09T19:11:43.267Z,69.80
2022-12-09T19:14:10.939Z,69.59
2022-12-09T19:16:38.291Z,69.50
2022-12-09T19:19:09.441Z,69.75
2022-12-09T19:21:36.614Z,69.49
2022-12-09T19:24:03.127Z,69.42
2022-12-09T19:26:32.304Z,69.42
2022-12-09T19:29:04.723Z,69.00
2022-12-09T19:31:36.735Z,69.04
2022-12-09T19:34:25.482Z,68.65
2022-12-09T19:36:54.029Z,69.72
2022-12-09T19:39:23.092Z,69.68
2022-12-09T19:41:51.517Z,69.86
2022-12-09T19:44:37.350Z,69.81
2022-12-09T19:47:06.345Z,69.70
2022-12-09T19:49:32.986Z,69.52
2022-12-09T19:51:59.469Z,69.71
2022-12-09T19:54:28.573Z,69.44
2022-12-09T19:56:55.978Z,69.29
2022-12-09T19:59:22.488Z,69.43
2022-12-09T20:01:49.194Z,69.42
2022-12-09T20:04:47.747Z,69.36
2022-12-09T20:07:08.249Z,69.77
2022-12-09T20:09:36.381Z,69.81
2022-12-09T20:12:02.927Z,69.80
2022-12-09T20:14:29.489Z,69.76
2022-12-09T20:16:56.005Z,69.85
2022-12-09T20:19:22.611Z,70.00
2022-12-09T20:21:49.650Z,69.93
2022-12-09T20:24:16.237Z,69.97
2022-12-09T20:26:42.894Z,70.04
2022-12-09T20:29:10.726Z,69.91
2022-12-09T20:31:38.379Z,69.86
2022-12-09T20:34:08.541Z,69.56
2022-12-09T20:36:36.771Z,69.85
2022-12-09T20:39:10.040Z,69.27
2022-12-09T20:41:36.555Z,69.64
2022-12-09T20:44:03.110Z,69.94
2022-12-09T20:46:32.203Z,69.43
2022-12-09T20:48:59.889Z,69.69
2022-12-09T20:51:35.138Z,68.91
2022-12-09T20:54:01.853Z,69.62
2022-12-09T20:56:29.651Z,69.43
2022-12-09T20:58:57.048Z,69.53
2022-12-09T21:01:32.539Z,68.69
2022-12-09T21:04:00.553Z,69.42
2022-12-09T21:06:30.214Z,69.04
2022-12-09T21:09:00.078Z,68.81
2022-12-09T21:11:26.767Z,69.37
2022-12-09T21:13:58.550Z,68.67
2022-12-09T21:16:27.914Z,69.13
2022-12-09T21:18:57.358Z,69.30
2022-12-09T21:21:28.506Z,69.36
2022-12-09T21:23:54.986Z,69.50
2022-12-09T21:26:23.563Z,69.69
2022-12-09T21:28:51.346Z,69.67
2022-12-09T21:31:26.044Z,68.72
2022-12-09T21:33:54.934Z,69.61
2022-12-09T21:36:27.441Z,68.87
2022-12-09T21:38:54.970Z,69.63
2022-12-09T21:41:24.588Z,69.38
2022-12-09T21:43:52.445Z,69.51
2022-12-09T21:46:22.401Z,69.52
2022-12-09T21:48:52.445Z,69.68
2022-12-09T21:51:20.171Z,69.65
2022-12-09T21:53:47.325Z,69.63
2022-12-09T21:56:17.338Z,69.61
2022-12-09T21:58:45.537Z,69.67
2022-12-09T22:01:21.381Z,69.25
2022-12-09T22:03:49.613Z,69.50
2022-12-09T22:06:16.749Z,68.00
2022-12-09T22:08:43.816Z,69.63
2022-12-09T22:11:13.772Z,69.20
2022-12-09T22:13:40.772Z,69.53
2022-12-09T22:16:09.010Z,69.75
2022-12-09T22:18:35.677Z,69.94
2022-12-09T22:21:27.983Z,68.58
2022-12-09T22:24:00.281Z,69.72
2022-12-09T22:26:28.013Z,69.91
2022-12-09T22:28:55.626Z,69.83
2022-12-09T22:31:28.083Z,69.00
2022-12-09T22:33:58.396Z,69.64
2022-12-09T22:36:25.007Z,69.70
2022-12-09T22:38:53.669Z,69.40
2022-12-09T22:41:24.236Z,68.78
2022-12-09T22:43:51.602Z,69.41
2022-12-09T22:46:24.355Z,68.34
2022-12-09T22:48:51.148Z,69.42
2022-12-09T22:51:29.326Z,67.85
2022-12-09T22:53:57.022Z,69.27
2022-12-09T22:56:24.457Z,67.67
2022-12-09T22:58:51.935Z,69.48
2022-12-09T23:01:24.261Z,69.24
2022-12-09T23:03:50.723Z,69.52
2022-12-09T23:06:17.921Z,69.29
2022-12-09T23:08:44.999Z,69.27
2022-12-09T23:11:14.252Z,69.21
2022-12-09T23:13:41.547Z,69.32
2022-12-09T23:16:10.734Z,69.30
2022-12-09T23:18:37.993Z,69.29
2022-12-09T23:21:11.182Z,68.41
2022-12-09T23:23:38.169Z,69.25
2022-12-09T23:26:13.078Z,69.31
2022-12-09T23:28:41.856Z,69.16
2022-12-09T23:31:10.251Z,69.40
2022-12-09T23:33:38.396Z,69.23
2022-12-09T23:36:05.800Z,67.52
2022-12-09T23:38:32.325Z,69.14
2022-12-09T23:40:59.023Z,69.02
2022-12-09T23:43:25.563Z,69.16
2022-12-09T23:45:52.130Z,69.17
2022-12-09T23:48:18.606Z,69.23
2022-12-09T23:50:45.098Z,69.23
2022-12-09T23:53:11.718Z,69.15
2022-12-09T23:55:41.789Z,68.50
2022-12-09T23:58:08.833Z,68.98
